sensor_id;sensor_type;location;lat;lon;timestamp;P1;durP1;ratioP1;P2;durP2;ratioP2
5833;SDS011;2943;48.012;10.968;2023-02-22T00:01:09;12.03;;;6.20;;
5833;SDS011;2943;48.012;10.968;2023-02-22T00:03:47;11.07;;;6.63;;
5833;SDS011;2943;48.012;10.968;2023-02-22T00:06:16;10.00;;;6.30;;
5833;SDS011;2943;48.012;10.968;2023-02-22T00:08:45;9.17;;;6.40;;
5833;SDS011;2943;48.012;10.968;2023-02-22T00:11:14;11.20;;;5.30;;
5833;SDS011;2943;48.012;10.968;2023-02-22T00:13:43;11.43;;;6.43;;
5833;SDS011;2943;48.012;10.968;2023-02-22T00:16:12;12.60;;;6.03;;
5833;SDS011;2943;48.012;10.968;2023-02-22T00:18:40;8.97;;;6.00;;
5833;SDS011;2943;48.012;10.968;2023-02-22T00:21:08;9.17;;;6.30;;
5833;SDS011;2943;48.012;10.968;2023-02-22T00:23:38;15.43;;;6.83;;
5833;SDS011;2943;48.012;10.968;2023-02-22T00:26:07;9.30;;;5.90;;
5833;SDS011;2943;48.012;10.968;2023-02-22T00:28:34;8.37;;;5.87;;
5833;SDS011;2943;48.012;10.968;2023-02-22T00:31:03;10.10;;;5.77;;
5833;SDS011;2943;48.012;10.968;2023-02-22T00:33:31;8.50;;;5.70;;
5833;SDS011;2943;48.012;10.968;2023-02-22T00:35:58;7.33;;;5.23;;
5833;SDS011;2943;48.012;10.968;2023-02-22T00:38:25;9.23;;;6.13;;
5833;SDS011;2943;48.012;10.968;2023-02-22T00:40:52;13.53;;;5.70;;
5833;SDS011;2943;48.012;10.968;2023-02-22T00:43:19;8.43;;;5.53;;
5833;SDS011;2943;48.012;10.968;2023-02-22T00:45:46;7.43;;;5.23;;
5833;SDS011;2943;48.012;10.968;2023-02-22T00:48:15;9.23;;;5.83;;
5833;SDS011;2943;48.012;10.968;2023-02-22T00:50:41;12.90;;;5.93;;
5833;SDS011;2943;48.012;10.968;2023-02-22T00:53:09;9.43;;;5.20;;
5833;SDS011;2943;48.012;10.968;2023-02-22T00:55:36;9.23;;;5.37;;
5833;SDS011;2943;48.012;10.968;2023-02-22T00:58:04;11.00;;;6.80;;
5833;SDS011;2943;48.012;10.968;2023-02-22T01:00:32;7.00;;;5.70;;
5833;SDS011;2943;48.012;10.968;2023-02-22T01:03:01;8.50;;;6.10;;
5833;SDS011;2943;48.012;10.968;2023-02-22T01:05:30;6.93;;;5.47;;
5833;SDS011;2943;48.012;10.968;2023-02-22T01:07:58;7.97;;;5.80;;
5833;SDS011;2943;48.012;10.968;2023-02-22T01:10:26;7.50;;;5.23;;
5833;SDS011;2943;48.012;10.968;2023-02-22T01:12:55;7.17;;;5.60;;
5833;SDS011;2943;48.012;10.968;2023-02-22T01:15:24;8.47;;;5.77;;
5833;SDS011;2943;48.012;10.968;2023-02-22T01:17:55;6.40;;;4.80;;
5833;SDS011;2943;48.012;10.968;2023-02-22T01:20:22;12.60;;;5.20;;
5833;SDS011;2943;48.012;10.968;2023-02-22T01:22:52;9.40;;;6.90;;
5833;SDS011;2943;48.012;10.968;2023-02-22T01:25:22;8.20;;;5.20;;
5833;SDS011;2943;48.012;10.968;2023-02-22T01:27:50;7.83;;;5.53;;
5833;SDS011;2943;48.012;10.968;2023-02-22T01:30:19;12.90;;;5.40;;
5833;SDS011;2943;48.012;10.968;2023-02-22T01:32:47;6.60;;;4.80;;
5833;SDS011;2943;48.012;10.968;2023-02-22T01:35:15;7.67;;;4.70;;
5833;SDS011;2943;48.012;10.968;2023-02-22T01:37:44;9.53;;;5.33;;
5833;SDS011;2943;48.012;10.968;2023-02-22T01:40:16;8.03;;;5.00;;
5833;SDS011;2943;48.012;10.968;2023-02-22T01:42:47;8.07;;;4.90;;
5833;SDS011;2943;48.012;10.968;2023-02-22T01:45:34;5.90;;;5.03;;
5833;SDS011;2943;48.012;10.968;2023-02-22T01:48:08;5.00;;;4.20;;
5833;SDS011;2943;48.012;10.968;2023-02-22T01:50:38;5.60;;;4.90;;
5833;SDS011;2943;48.012;10.968;2023-02-22T01:53:08;7.13;;;4.90;;
5833;SDS011;2943;48.012;10.968;2023-02-22T01:55:39;7.03;;;4.97;;
5833;SDS011;2943;48.012;10.968;2023-02-22T01:58:07;9.37;;;5.67;;
5833;SDS011;2943;48.012;10.968;2023-02-22T02:00:34;7.30;;;5.30;;
5833;SDS011;2943;48.012;10.968;2023-02-22T02:03:02;6.47;;;5.27;;
5833;SDS011;2943;48.012;10.968;2023-02-22T02:05:32;6.20;;;4.53;;
5833;SDS011;2943;48.012;10.968;2023-02-22T02:08:04;7.33;;;5.27;;
5833;SDS011;2943;48.012;10.968;2023-02-22T02:10:39;6.80;;;4.90;;
5833;SDS011;2943;48.012;10.968;2023-02-22T02:13:07;6.50;;;4.60;;
5833;SDS011;2943;48.012;10.968;2023-02-22T02:15:35;8.33;;;4.63;;
5833;SDS011;2943;48.012;10.968;2023-02-22T02:18:03;8.87;;;5.10;;
5833;SDS011;2943;48.012;10.968;2023-02-22T02:20:34;5.47;;;4.30;;
5833;SDS011;2943;48.012;10.968;2023-02-22T02:23:10;6.13;;;4.63;;
5833;SDS011;2943;48.012;10.968;2023-02-22T02:29:08;4.43;;;4.03;;
5833;SDS011;2943;48.012;10.968;2023-02-22T02:32:01;5.40;;;4.00;;
5833;SDS011;2943;48.012;10.968;2023-02-22T02:34:46;5.63;;;4.90;;
5833;SDS011;2943;48.012;10.968;2023-02-22T02:37:17;6.23;;;5.00;;
5833;SDS011;2943;48.012;10.968;2023-02-22T02:39:52;4.90;;;3.83;;
5833;SDS011;2943;48.012;10.968;2023-02-22T02:42:24;6.20;;;4.53;;
5833;SDS011;2943;48.012;10.968;2023-02-22T02:44:59;6.23;;;4.80;;
5833;SDS011;2943;48.012;10.968;2023-02-22T02:47:30;7.27;;;4.70;;
5833;SDS011;2943;48.012;10.968;2023-02-22T02:50:03;6.90;;;4.37;;
5833;SDS011;2943;48.012;10.968;2023-02-22T02:52:33;4.90;;;4.17;;
5833;SDS011;2943;48.012;10.968;2023-02-22T02:55:02;6.63;;;4.37;;
5833;SDS011;2943;48.012;10.968;2023-02-22T02:57:31;5.97;;;4.17;;
5833;SDS011;2943;48.012;10.968;2023-02-22T02:59:58;5.93;;;4.47;;
5833;SDS011;2943;48.012;10.968;2023-02-22T03:02:29;6.73;;;4.50;;
5833;SDS011;2943;48.012;10.968;2023-02-22T03:05:16;6.37;;;4.37;;
5833;SDS011;2943;48.012;10.968;2023-02-22T03:07:57;6.33;;;4.60;;
5833;SDS011;2943;48.012;10.968;2023-02-22T03:10:37;4.70;;;4.00;;
5833;SDS011;2943;48.012;10.968;2023-02-22T03:13:13;6.00;;;4.30;;
5833;SDS011;2943;48.012;10.968;2023-02-22T03:15:49;8.77;;;4.80;;
5833;SDS011;2943;48.012;10.968;2023-02-22T03:18:26;4.97;;;4.23;;
5833;SDS011;2943;48.012;10.968;2023-02-22T03:20:58;4.80;;;3.53;;
5833;SDS011;2943;48.012;10.968;2023-02-22T03:23:34;5.70;;;4.40;;
5833;SDS011;2943;48.012;10.968;2023-02-22T03:26:06;6.07;;;4.07;;
5833;SDS011;2943;48.012;10.968;2023-02-22T03:28:36;14.20;;;4.10;;
5833;SDS011;2943;48.012;10.968;2023-02-22T03:31:06;4.50;;;3.80;;
5833;SDS011;2943;48.012;10.968;2023-02-22T03:33:39;5.60;;;4.20;;
5833;SDS011;2943;48.012;10.968;2023-02-22T03:36:10;5.83;;;3.90;;
5833;SDS011;2943;48.012;10.968;2023-02-22T03:38:41;5.13;;;4.13;;
5833;SDS011;2943;48.012;10.968;2023-02-22T03:41:11;7.80;;;5.10;;
5833;SDS011;2943;48.012;10.968;2023-02-22T03:43:44;6.30;;;4.30;;
5833;SDS011;2943;48.012;10.968;2023-02-22T03:46:13;9.40;;;4.47;;
5833;SDS011;2943;48.012;10.968;2023-02-22T03:48:44;5.00;;;4.17;;
5833;SDS011;2943;48.012;10.968;2023-02-22T03:51:18;10.37;;;4.47;;
5833;SDS011;2943;48.012;10.968;2023-02-22T03:53:45;4.47;;;3.73;;
5833;SDS011;2943;48.012;10.968;2023-02-22T03:56:19;7.20;;;4.00;;
5833;SDS011;2943;48.012;10.968;2023-02-22T03:58:49;4.27;;;3.87;;
5833;SDS011;2943;48.012;10.968;2023-02-22T04:01:17;6.67;;;3.90;;
5833;SDS011;2943;48.012;10.968;2023-02-22T04:03:48;5.70;;;3.67;;
5833;SDS011;2943;48.012;10.968;2023-02-22T04:06:15;6.17;;;4.17;;
5833;SDS011;2943;48.012;10.968;2023-02-22T04:08:42;5.37;;;3.97;;
5833;SDS011;2943;48.012;10.968;2023-02-22T04:11:09;6.30;;;4.13;;
5833;SDS011;2943;48.012;10.968;2023-02-22T04:13:35;5.40;;;4.00;;
5833;SDS011;2943;48.012;10.968;2023-02-22T04:16:03;5.30;;;4.00;;
5833;SDS011;2943;48.012;10.968;2023-02-22T04:18:30;9.73;;;4.80;;
5833;SDS011;2943;48.012;10.968;2023-02-22T04:20:58;4.87;;;3.67;;
5833;SDS011;2943;48.012;10.968;2023-02-22T04:23:25;6.97;;;4.37;;
5833;SDS011;2943;48.012;10.968;2023-02-22T04:25:52;9.00;;;4.30;;
5833;SDS011;2943;48.012;10.968;2023-02-22T04:28:19;3.77;;;3.43;;
5833;SDS011;2943;48.012;10.968;2023-02-22T04:30:45;7.70;;;4.43;;
5833;SDS011;2943;48.012;10.968;2023-02-22T04:33:12;6.73;;;4.07;;
5833;SDS011;2943;48.012;10.968;2023-02-22T04:35:40;6.53;;;4.60;;
5833;SDS011;2943;48.012;10.968;2023-02-22T04:38:08;5.13;;;4.40;;
5833;SDS011;2943;48.012;10.968;2023-02-22T04:40:35;6.17;;;4.53;;
5833;SDS011;2943;48.012;10.968;2023-02-22T04:43:02;11.90;;;5.27;;
5833;SDS011;2943;48.012;10.968;2023-02-22T04:45:28;6.40;;;4.50;;
5833;SDS011;2943;48.012;10.968;2023-02-22T04:47:55;10.67;;;5.50;;
5833;SDS011;2943;48.012;10.968;2023-02-22T04:50:22;8.40;;;5.00;;
5833;SDS011;2943;48.012;10.968;2023-02-22T04:52:49;8.30;;;4.57;;
5833;SDS011;2943;48.012;10.968;2023-02-22T04:55:17;7.10;;;4.63;;
5833;SDS011;2943;48.012;10.968;2023-02-22T04:57:44;7.27;;;4.80;;
5833;SDS011;2943;48.012;10.968;2023-02-22T05:00:14;6.40;;;4.73;;
5833;SDS011;2943;48.012;10.968;2023-02-22T05:02:43;6.13;;;4.20;;
5833;SDS011;2943;48.012;10.968;2023-02-22T05:05:10;7.33;;;4.50;;
5833;SDS011;2943;48.012;10.968;2023-02-22T05:07:39;5.33;;;3.97;;
5833;SDS011;2943;48.012;10.968;2023-02-22T05:10:06;9.07;;;4.70;;
5833;SDS011;2943;48.012;10.968;2023-02-22T05:12:35;13.00;;;4.60;;
5833;SDS011;2943;48.012;10.968;2023-02-22T05:15:02;7.10;;;4.67;;
5833;SDS011;2943;48.012;10.968;2023-02-22T05:17:29;8.53;;;5.20;;
5833;SDS011;2943;48.012;10.968;2023-02-22T05:19:56;6.47;;;4.93;;
5833;SDS011;2943;48.012;10.968;2023-02-22T05:22:23;5.10;;;3.90;;
5833;SDS011;2943;48.012;10.968;2023-02-22T05:24:50;8.43;;;5.27;;
5833;SDS011;2943;48.012;10.968;2023-02-22T05:27:17;8.63;;;5.27;;
5833;SDS011;2943;48.012;10.968;2023-02-22T05:29:45;7.00;;;5.00;;
5833;SDS011;2943;48.012;10.968;2023-02-22T05:32:12;10.13;;;5.93;;
5833;SDS011;2943;48.012;10.968;2023-02-22T05:34:39;9.30;;;5.70;;
5833;SDS011;2943;48.012;10.968;2023-02-22T05:37:06;12.20;;;5.97;;
5833;SDS011;2943;48.012;10.968;2023-02-22T05:39:33;10.80;;;6.90;;
5833;SDS011;2943;48.012;10.968;2023-02-22T05:41:59;14.27;;;7.97;;
5833;SDS011;2943;48.012;10.968;2023-02-22T05:44:26;11.43;;;7.00;;
5833;SDS011;2943;48.012;10.968;2023-02-22T05:46:54;13.67;;;8.13;;
5833;SDS011;2943;48.012;10.968;2023-02-22T05:49:21;13.30;;;7.40;;
5833;SDS011;2943;48.012;10.968;2023-02-22T05:51:48;12.90;;;7.27;;
5833;SDS011;2943;48.012;10.968;2023-02-22T05:54:15;10.00;;;6.10;;
5833;SDS011;2943;48.012;10.968;2023-02-22T05:56:42;9.47;;;6.90;;
5833;SDS011;2943;48.012;10.968;2023-02-22T05:59:09;9.17;;;6.43;;
5833;SDS011;2943;48.012;10.968;2023-02-22T06:01:36;97.90;;;31.97;;
5833;SDS011;2943;48.012;10.968;2023-02-22T06:04:04;129.33;;;44.83;;
5833;SDS011;2943;48.012;10.968;2023-02-22T06:06:30;124.53;;;37.17;;
5833;SDS011;2943;48.012;10.968;2023-02-22T06:08:57;55.10;;;22.07;;
5833;SDS011;2943;48.012;10.968;2023-02-22T06:11:24;41.03;;;16.70;;
5833;SDS011;2943;48.012;10.968;2023-02-22T06:13:51;36.57;;;15.53;;
5833;SDS011;2943;48.012;10.968;2023-02-22T06:16:18;26.03;;;10.37;;
5833;SDS011;2943;48.012;10.968;2023-02-22T06:18:46;15.63;;;8.00;;
5833;SDS011;2943;48.012;10.968;2023-02-22T06:21:14;13.93;;;7.67;;
5833;SDS011;2943;48.012;10.968;2023-02-22T06:23:42;15.00;;;9.40;;
5833;SDS011;2943;48.012;10.968;2023-02-22T06:26:09;12.73;;;8.00;;
5833;SDS011;2943;48.012;10.968;2023-02-22T06:28:35;16.53;;;9.03;;
5833;SDS011;2943;48.012;10.968;2023-02-22T06:31:02;13.87;;;7.43;;
5833;SDS011;2943;48.012;10.968;2023-02-22T06:33:29;16.50;;;9.23;;
5833;SDS011;2943;48.012;10.968;2023-02-22T06:35:56;16.77;;;8.70;;
5833;SDS011;2943;48.012;10.968;2023-02-22T06:38:24;13.70;;;8.87;;
5833;SDS011;2943;48.012;10.968;2023-02-22T06:40:52;15.87;;;9.00;;
5833;SDS011;2943;48.012;10.968;2023-02-22T06:43:20;15.37;;;9.50;;
5833;SDS011;2943;48.012;10.968;2023-02-22T06:45:48;13.07;;;9.07;;
5833;SDS011;2943;48.012;10.968;2023-02-22T06:48:15;13.40;;;8.90;;
5833;SDS011;2943;48.012;10.968;2023-02-22T06:50:42;12.93;;;8.50;;
5833;SDS011;2943;48.012;10.968;2023-02-22T06:53:09;12.77;;;8.10;;
5833;SDS011;2943;48.012;10.968;2023-02-22T06:55:37;8.43;;;6.87;;
5833;SDS011;2943;48.012;10.968;2023-02-22T06:58:04;10.83;;;7.90;;
5833;SDS011;2943;48.012;10.968;2023-02-22T07:00:31;10.83;;;7.70;;
5833;SDS011;2943;48.012;10.968;2023-02-22T07:02:58;15.83;;;8.53;;
5833;SDS011;2943;48.012;10.968;2023-02-22T07:05:26;27.07;;;8.70;;
5833;SDS011;2943;48.012;10.968;2023-02-22T07:07:54;21.67;;;7.93;;
5833;SDS011;2943;48.012;10.968;2023-02-22T07:10:27;20.63;;;8.03;;
5833;SDS011;2943;48.012;10.968;2023-02-22T07:12:56;12.77;;;8.20;;
5833;SDS011;2943;48.012;10.968;2023-02-22T07:15:23;26.93;;;8.60;;
5833;SDS011;2943;48.012;10.968;2023-02-22T07:17:51;16.27;;;8.17;;
5833;SDS011;2943;48.012;10.968;2023-02-22T07:20:19;25.10;;;8.40;;
5833;SDS011;2943;48.012;10.968;2023-02-22T07:22:47;13.00;;;8.40;;
5833;SDS011;2943;48.012;10.968;2023-02-22T07:25:14;24.13;;;9.77;;
5833;SDS011;2943;48.012;10.968;2023-02-22T07:27:41;18.77;;;9.37;;
5833;SDS011;2943;48.012;10.968;2023-02-22T07:30:14;25.13;;;9.40;;
5833;SDS011;2943;48.012;10.968;2023-02-22T07:32:42;16.50;;;8.47;;
5833;SDS011;2943;48.012;10.968;2023-02-22T07:35:12;15.50;;;9.10;;
5833;SDS011;2943;48.012;10.968;2023-02-22T07:37:40;14.70;;;8.17;;
5833;SDS011;2943;48.012;10.968;2023-02-22T07:40:07;17.70;;;8.53;;
5833;SDS011;2943;48.012;10.968;2023-02-22T07:42:48;14.82;;;7.75;;
5833;SDS011;2943;48.012;10.968;2023-02-22T07:45:22;10.13;;;7.00;;
5833;SDS011;2943;48.012;10.968;2023-02-22T07:47:50;10.37;;;6.33;;
5833;SDS011;2943;48.012;10.968;2023-02-22T07:50:18;10.60;;;5.27;;
5833;SDS011;2943;48.012;10.968;2023-02-22T07:52:46;5.97;;;4.50;;
5833;SDS011;2943;48.012;10.968;2023-02-22T07:55:14;10.30;;;4.97;;
5833;SDS011;2943;48.012;10.968;2023-02-22T07:57:42;5.27;;;4.37;;
5833;SDS011;2943;48.012;10.968;2023-02-22T08:00:09;6.93;;;4.87;;
5833;SDS011;2943;48.012;10.968;2023-02-22T08:02:39;8.33;;;5.57;;
5833;SDS011;2943;48.012;10.968;2023-02-22T08:05:07;7.77;;;4.83;;
5833;SDS011;2943;48.012;10.968;2023-02-22T08:07:35;10.50;;;6.97;;
5833;SDS011;2943;48.012;10.968;2023-02-22T08:10:02;14.53;;;8.07;;
5833;SDS011;2943;48.012;10.968;2023-02-22T08:12:31;18.27;;;9.90;;
5833;SDS011;2943;48.012;10.968;2023-02-22T08:14:58;14.97;;;9.63;;
5833;SDS011;2943;48.012;10.968;2023-02-22T08:17:25;15.10;;;9.33;;
5833;SDS011;2943;48.012;10.968;2023-02-22T08:19:53;18.73;;;10.00;;
5833;SDS011;2943;48.012;10.968;2023-02-22T08:22:19;15.00;;;8.20;;
5833;SDS011;2943;48.012;10.968;2023-02-22T08:24:47;18.17;;;9.13;;
5833;SDS011;2943;48.012;10.968;2023-02-22T08:27:21;25.70;;;9.20;;
5833;SDS011;2943;48.012;10.968;2023-02-22T08:29:49;12.83;;;7.43;;
5833;SDS011;2943;48.012;10.968;2023-02-22T08:32:15;12.93;;;7.17;;
5833;SDS011;2943;48.012;10.968;2023-02-22T08:34:42;9.50;;;5.30;;
5833;SDS011;2943;48.012;10.968;2023-02-22T08:37:10;7.10;;;4.70;;
5833;SDS011;2943;48.012;10.968;2023-02-22T08:39:37;9.43;;;4.00;;
5833;SDS011;2943;48.012;10.968;2023-02-22T08:42:04;6.10;;;4.67;;
5833;SDS011;2943;48.012;10.968;2023-02-22T08:44:33;8.33;;;4.80;;
5833;SDS011;2943;48.012;10.968;2023-02-22T08:47:00;5.20;;;4.47;;
5833;SDS011;2943;48.012;10.968;2023-02-22T08:49:26;5.30;;;3.47;;
5833;SDS011;2943;48.012;10.968;2023-02-22T08:51:53;4.97;;;4.27;;
5833;SDS011;2943;48.012;10.968;2023-02-22T08:54:21;5.47;;;3.37;;
5833;SDS011;2943;48.012;10.968;2023-02-22T08:56:48;4.80;;;3.07;;
5833;SDS011;2943;48.012;10.968;2023-02-22T08:59:15;4.83;;;3.33;;
5833;SDS011;2943;48.012;10.968;2023-02-22T09:01:42;5.80;;;3.53;;
5833;SDS011;2943;48.012;10.968;2023-02-22T09:04:09;8.43;;;4.50;;
5833;SDS011;2943;48.012;10.968;2023-02-22T09:06:38;6.90;;;4.00;;
5833;SDS011;2943;48.012;10.968;2023-02-22T09:09:05;4.90;;;3.53;;
5833;SDS011;2943;48.012;10.968;2023-02-22T09:11:33;3.33;;;3.03;;
5833;SDS011;2943;48.012;10.968;2023-02-22T09:14:00;7.50;;;3.60;;
5833;SDS011;2943;48.012;10.968;2023-02-22T09:16:27;3.23;;;2.93;;
5833;SDS011;2943;48.012;10.968;2023-02-22T09:18:54;4.47;;;3.60;;
5833;SDS011;2943;48.012;10.968;2023-02-22T09:21:20;5.77;;;3.33;;
5833;SDS011;2943;48.012;10.968;2023-02-22T09:23:47;5.40;;;3.13;;
5833;SDS011;2943;48.012;10.968;2023-02-22T09:26:14;6.83;;;3.60;;
5833;SDS011;2943;48.012;10.968;2023-02-22T09:28:42;5.30;;;3.60;;
5833;SDS011;2943;48.012;10.968;2023-02-22T09:31:09;3.50;;;2.47;;
5833;SDS011;2943;48.012;10.968;2023-02-22T09:33:36;6.00;;;2.40;;
5833;SDS011;2943;48.012;10.968;2023-02-22T09:36:02;2.63;;;2.27;;
5833;SDS011;2943;48.012;10.968;2023-02-22T09:38:30;2.37;;;2.00;;
5833;SDS011;2943;48.012;10.968;2023-02-22T09:41:01;3.47;;;2.37;;
5833;SDS011;2943;48.012;10.968;2023-02-22T09:43:36;4.20;;;2.50;;
5833;SDS011;2943;48.012;10.968;2023-02-22T09:46:11;7.03;;;2.97;;
5833;SDS011;2943;48.012;10.968;2023-02-22T09:48:55;3.87;;;2.70;;
5833;SDS011;2943;48.012;10.968;2023-02-22T09:51:26;5.07;;;2.77;;
5833;SDS011;2943;48.012;10.968;2023-02-22T09:53:59;5.90;;;3.40;;
5833;SDS011;2943;48.012;10.968;2023-02-22T09:56:29;4.77;;;2.93;;
5833;SDS011;2943;48.012;10.968;2023-02-22T09:58:58;6.73;;;2.97;;
5833;SDS011;2943;48.012;10.968;2023-02-22T10:01:30;3.47;;;3.00;;
5833;SDS011;2943;48.012;10.968;2023-02-22T10:04:03;6.37;;;3.20;;
5833;SDS011;2943;48.012;10.968;2023-02-22T10:06:35;3.43;;;2.60;;
5833;SDS011;2943;48.012;10.968;2023-02-22T10:09:04;6.27;;;3.00;;
5833;SDS011;2943;48.012;10.968;2023-02-22T10:11:41;4.27;;;3.10;;
5833;SDS011;2943;48.012;10.968;2023-02-22T10:14:25;3.57;;;2.70;;
5833;SDS011;2943;48.012;10.968;2023-02-22T10:17:10;5.20;;;2.80;;
5833;SDS011;2943;48.012;10.968;2023-02-22T10:19:48;4.03;;;2.40;;
5833;SDS011;2943;48.012;10.968;2023-02-22T10:22:37;4.30;;;2.77;;
5833;SDS011;2943;48.012;10.968;2023-02-22T10:25:16;4.93;;;3.03;;
5833;SDS011;2943;48.012;10.968;2023-02-22T10:27:47;3.23;;;2.63;;
5833;SDS011;2943;48.012;10.968;2023-02-22T10:30:20;7.70;;;3.40;;
5833;SDS011;2943;48.012;10.968;2023-02-22T10:32:51;3.83;;;2.50;;
5833;SDS011;2943;48.012;10.968;2023-02-22T10:35:24;7.40;;;2.80;;
5833;SDS011;2943;48.012;10.968;2023-02-22T10:37:55;6.93;;;2.93;;
5833;SDS011;2943;48.012;10.968;2023-02-22T10:40:25;9.40;;;3.33;;
5833;SDS011;2943;48.012;10.968;2023-02-22T10:42:57;3.57;;;2.63;;
5833;SDS011;2943;48.012;10.968;2023-02-22T10:45:28;5.70;;;3.30;;
5833;SDS011;2943;48.012;10.968;2023-02-22T10:47:59;6.23;;;2.60;;
5833;SDS011;2943;48.012;10.968;2023-02-22T10:50:32;12.63;;;2.93;;
5833;SDS011;2943;48.012;10.968;2023-02-22T10:53:03;4.10;;;2.60;;
5833;SDS011;2943;48.012;10.968;2023-02-22T10:55:30;4.87;;;2.90;;
5833;SDS011;2943;48.012;10.968;2023-02-22T10:57:58;4.23;;;3.30;;
5833;SDS011;2943;48.012;10.968;2023-02-22T11:00:31;8.63;;;3.50;;
5833;SDS011;2943;48.012;10.968;2023-02-22T11:03:03;4.10;;;3.10;;
5833;SDS011;2943;48.012;10.968;2023-02-22T11:05:40;5.13;;;3.30;;
5833;SDS011;2943;48.012;10.968;2023-02-22T11:08:14;3.43;;;2.80;;
5833;SDS011;2943;48.012;10.968;2023-02-22T11:10:48;4.90;;;2.77;;
5833;SDS011;2943;48.012;10.968;2023-02-22T11:13:16;4.67;;;2.93;;
5833;SDS011;2943;48.012;10.968;2023-02-22T11:15:44;6.47;;;3.23;;
5833;SDS011;2943;48.012;10.968;2023-02-22T11:18:20;7.73;;;2.73;;
5833;SDS011;2943;48.012;10.968;2023-02-22T11:20:57;5.20;;;3.00;;
5833;SDS011;2943;48.012;10.968;2023-02-22T11:23:26;4.80;;;2.70;;
5833;SDS011;2943;48.012;10.968;2023-02-22T11:25:59;5.17;;;2.43;;
5833;SDS011;2943;48.012;10.968;2023-02-22T11:28:29;2.50;;;2.20;;
5833;SDS011;2943;48.012;10.968;2023-02-22T11:30:57;3.50;;;2.70;;
5833;SDS011;2943;48.012;10.968;2023-02-22T11:33:35;4.67;;;2.90;;
5833;SDS011;2943;48.012;10.968;2023-02-22T11:36:04;9.70;;;2.93;;
5833;SDS011;2943;48.012;10.968;2023-02-22T11:38:33;5.50;;;2.80;;
5833;SDS011;2943;48.012;10.968;2023-02-22T11:43:51;2.87;;;2.27;;
5833;SDS011;2943;48.012;10.968;2023-02-22T11:46:19;7.60;;;2.17;;
5833;SDS011;2943;48.012;10.968;2023-02-22T11:48:55;3.53;;;2.50;;
5833;SDS011;2943;48.012;10.968;2023-02-22T11:54:22;14.63;;;4.40;;
5833;SDS011;2943;48.012;10.968;2023-02-22T11:57:13;7.57;;;3.63;;
5833;SDS011;2943;48.012;10.968;2023-02-22T11:59:50;10.67;;;4.67;;
5833;SDS011;2943;48.012;10.968;2023-02-22T12:02:38;10.57;;;3.97;;
5833;SDS011;2943;48.012;10.968;2023-02-22T12:05:18;6.53;;;4.03;;
5833;SDS011;2943;48.012;10.968;2023-02-22T12:07:56;8.93;;;3.70;;
5833;SDS011;2943;48.012;10.968;2023-02-22T12:10:39;13.10;;;4.30;;
5833;SDS011;2943;48.012;10.968;2023-02-22T12:13:19;6.10;;;3.70;;
5833;SDS011;2943;48.012;10.968;2023-02-22T12:16:02;12.73;;;4.80;;
5833;SDS011;2943;48.012;10.968;2023-02-22T12:18:43;9.67;;;4.67;;
5833;SDS011;2943;48.012;10.968;2023-02-22T12:21:24;8.40;;;4.13;;
5833;SDS011;2943;48.012;10.968;2023-02-22T12:23:55;6.30;;;4.30;;
5833;SDS011;2943;48.012;10.968;2023-02-22T12:26:27;9.93;;;4.43;;
5833;SDS011;2943;48.012;10.968;2023-02-22T12:29:00;10.07;;;4.90;;
5833;SDS011;2943;48.012;10.968;2023-02-22T12:31:29;11.90;;;5.33;;
5833;SDS011;2943;48.012;10.968;2023-02-22T12:34:03;12.80;;;4.43;;
5833;SDS011;2943;48.012;10.968;2023-02-22T12:36:38;7.73;;;4.63;;
5833;SDS011;2943;48.012;10.968;2023-02-22T12:39:22;11.87;;;5.17;;
5833;SDS011;2943;48.012;10.968;2023-02-22T12:41:53;10.30;;;4.53;;
5833;SDS011;2943;48.012;10.968;2023-02-22T12:44:23;7.37;;;5.00;;
5833;SDS011;2943;48.012;10.968;2023-02-22T12:46:54;10.30;;;5.10;;
5833;SDS011;2943;48.012;10.968;2023-02-22T12:49:25;11.63;;;5.10;;
5833;SDS011;2943;48.012;10.968;2023-02-22T12:51:59;13.40;;;5.97;;
5833;SDS011;2943;48.012;10.968;2023-02-22T12:54:35;13.43;;;6.10;;
5833;SDS011;2943;48.012;10.968;2023-02-22T12:57:10;11.30;;;5.93;;
5833;SDS011;2943;48.012;10.968;2023-02-22T12:59:45;9.23;;;5.20;;
5833;SDS011;2943;48.012;10.968;2023-02-22T13:02:17;9.03;;;4.97;;
5833;SDS011;2943;48.012;10.968;2023-02-22T13:04:47;10.50;;;5.67;;
5833;SDS011;2943;48.012;10.968;2023-02-22T13:07:20;12.57;;;6.10;;
5833;SDS011;2943;48.012;10.968;2023-02-22T13:10:11;11.20;;;5.60;;
5833;SDS011;2943;48.012;10.968;2023-02-22T13:12:51;10.80;;;5.80;;
5833;SDS011;2943;48.012;10.968;2023-02-22T13:15:28;10.83;;;5.30;;
5833;SDS011;2943;48.012;10.968;2023-02-22T13:18:05;12.37;;;6.13;;
5833;SDS011;2943;48.012;10.968;2023-02-22T13:20:38;13.57;;;5.90;;
5833;SDS011;2943;48.012;10.968;2023-02-22T13:23:12;9.93;;;5.43;;
5833;SDS011;2943;48.012;10.968;2023-02-22T13:25:46;10.03;;;5.13;;
5833;SDS011;2943;48.012;10.968;2023-02-22T13:28:21;13.03;;;5.77;;
5833;SDS011;2943;48.012;10.968;2023-02-22T13:30:59;21.43;;;6.60;;
5833;SDS011;2943;48.012;10.968;2023-02-22T13:33:53;32.20;;;7.70;;
5833;SDS011;2943;48.012;10.968;2023-02-22T13:36:39;22.50;;;7.87;;
5833;SDS011;2943;48.012;10.968;2023-02-22T13:51:18;18.63;;;8.93;;
5833;SDS011;2943;48.012;10.968;2023-02-22T13:54:00;40.77;;;10.83;;
5833;SDS011;2943;48.012;10.968;2023-02-22T13:56:32;26.33;;;9.70;;
5833;SDS011;2943;48.012;10.968;2023-02-22T13:58:59;15.47;;;9.33;;
5833;SDS011;2943;48.012;10.968;2023-02-22T14:01:38;21.10;;;9.33;;
5833;SDS011;2943;48.012;10.968;2023-02-22T14:10:37;17.53;;;9.80;;
5833;SDS011;2943;48.012;10.968;2023-02-22T14:13:12;15.30;;;9.50;;
5833;SDS011;2943;48.012;10.968;2023-02-22T14:18:43;18.70;;;10.67;;
5833;SDS011;2943;48.012;10.968;2023-02-22T14:21:13;20.70;;;11.70;;
5833;SDS011;2943;48.012;10.968;2023-02-22T14:23:42;26.93;;;11.47;;
5833;SDS011;2943;48.012;10.968;2023-02-22T14:26:12;21.73;;;12.70;;
5833;SDS011;2943;48.012;10.968;2023-02-22T14:28:53;18.33;;;10.20;;
5833;SDS011;2943;48.012;10.968;2023-02-22T14:31:22;25.10;;;11.53;;
5833;SDS011;2943;48.012;10.968;2023-02-22T14:36:35;21.90;;;13.07;;
5833;SDS011;2943;48.012;10.968;2023-02-22T14:39:11;21.77;;;13.60;;
5833;SDS011;2943;48.012;10.968;2023-02-22T14:41:44;31.70;;;12.70;;
5833;SDS011;2943;48.012;10.968;2023-02-22T14:44:18;23.73;;;13.70;;
5833;SDS011;2943;48.012;10.968;2023-02-22T14:46:49;21.80;;;11.83;;
5833;SDS011;2943;48.012;10.968;2023-02-22T14:49:18;40.07;;;15.00;;
5833;SDS011;2943;48.012;10.968;2023-02-22T14:51:49;22.63;;;13.73;;
5833;SDS011;2943;48.012;10.968;2023-02-22T14:54:22;21.57;;;13.13;;
5833;SDS011;2943;48.012;10.968;2023-02-22T14:56:56;21.87;;;12.80;;
5833;SDS011;2943;48.012;10.968;2023-02-22T14:59:45;34.60;;;13.93;;
5833;SDS011;2943;48.012;10.968;2023-02-22T15:02:21;30.70;;;14.33;;
5833;SDS011;2943;48.012;10.968;2023-02-22T15:04:50;21.53;;;13.43;;
5833;SDS011;2943;48.012;10.968;2023-02-22T15:07:19;24.90;;;14.20;;
5833;SDS011;2943;48.012;10.968;2023-02-22T15:09:51;41.27;;;14.70;;
5833;SDS011;2943;48.012;10.968;2023-02-22T15:12:30;22.53;;;14.20;;
5833;SDS011;2943;48.012;10.968;2023-02-22T15:15:12;22.30;;;13.10;;
5833;SDS011;2943;48.012;10.968;2023-02-22T15:17:46;26.00;;;14.07;;
5833;SDS011;2943;48.012;10.968;2023-02-22T15:20:18;29.67;;;15.30;;
5833;SDS011;2943;48.012;10.968;2023-02-22T15:22:46;22.67;;;14.10;;
5833;SDS011;2943;48.012;10.968;2023-02-22T15:25:14;24.30;;;14.20;;
5833;SDS011;2943;48.012;10.968;2023-02-22T15:27:42;32.17;;;13.43;;
5833;SDS011;2943;48.012;10.968;2023-02-22T15:30:18;26.27;;;14.30;;
5833;SDS011;2943;48.012;10.968;2023-02-22T15:32:47;31.90;;;15.10;;
5833;SDS011;2943;48.012;10.968;2023-02-22T15:35:15;21.70;;;13.00;;
5833;SDS011;2943;48.012;10.968;2023-02-22T15:37:44;31.00;;;13.57;;
5833;SDS011;2943;48.012;10.968;2023-02-22T15:40:12;23.20;;;14.30;;
5833;SDS011;2943;48.012;10.968;2023-02-22T15:42:42;21.00;;;14.23;;
5833;SDS011;2943;48.012;10.968;2023-02-22T15:45:13;23.30;;;14.47;;
5833;SDS011;2943;48.012;10.968;2023-02-22T15:47:45;27.23;;;13.23;;